sensor_id;sensor_type;location;lat;lon;timestamp;pressure;altitude;pressure_sealevel;temperature;humidity
74336;BME280;62755;-33.398;-70.572;2023-10-08T00:01:51;93447.84;;;20.45;40.91
74336;BME280;62755;-33.398;-70.572;2023-10-08T00:04:22;93464.34;;;20.65;40.96
74336;BME280;62755;-33.398;-70.572;2023-10-08T00:06:52;93465.63;;;20.55;41.34
74336;BME280;62755;-33.398;-70.572;2023-10-08T00:09:24;93473.25;;;20.66;41.17
74336;BME280;62755;-33.398;-70.572;2023-10-08T00:11:53;93470.50;;;20.75;40.91
74336;BME280;62755;-33.398;-70.572;2023-10-08T00:14:23;93472.16;;;20.72;41.33
74336;BME280;62755;-33.398;-70.572;2023-10-08T00:16:52;93477.50;;;20.67;41.19
74336;BME280;62755;-33.398;-70.572;2023-10-08T00:19:22;93483.72;;;20.67;41.30
74336;BME280;62755;-33.398;-70.572;2023-10-08T00:21:52;93487.44;;;20.55;41.53
74336;BME280;62755;-33.398;-70.572;2023-10-08T00:24:24;93490.28;;;20.37;41.87
74336;BME280;62755;-33.398;-70.572;2023-10-08T00:26:54;93485.97;;;20.22;42.06
74336;BME280;62755;-33.398;-70.572;2023-10-08T00:29:24;93486.34;;;20.38;42.01
74336;BME280;62755;-33.398;-70.572;2023-10-08T00:31:53;93477.81;;;20.45;41.95
74336;BME280;62755;-33.398;-70.572;2023-10-08T00:34:23;93484.13;;;20.51;41.74
74336;BME280;62755;-33.398;-70.572;2023-10-08T00:36:54;93486.34;;;20.38;41.88
74336;BME280;62755;-33.398;-70.572;2023-10-08T00:39:26;93486.00;;;20.45;41.76
74336;BME280;62755;-33.398;-70.572;2023-10-08T00:42:01;93481.00;;;20.20;42.34
74336;BME280;62755;-33.398;-70.572;2023-10-08T00:44:32;93474.03;;;20.19;42.54
74336;BME280;62755;-33.398;-70.572;2023-10-08T00:47:09;93479.16;;;20.17;42.57
74336;BME280;62755;-33.398;-70.572;2023-10-08T00:49:39;93479.00;;;20.21;42.43
74336;BME280;62755;-33.398;-70.572;2023-10-08T00:52:21;93477.09;;;20.03;42.54
74336;BME280;62755;-33.398;-70.572;2023-10-08T00:55:10;93495.56;;;19.99;42.85
74336;BME280;62755;-33.398;-70.572;2023-10-08T00:57:51;93482.22;;;20.10;42.80
74336;BME280;62755;-33.398;-70.572;2023-10-08T01:00:25;93485.50;;;20.23;42.54
74336;BME280;62755;-33.398;-70.572;2023-10-08T01:03:00;93478.09;;;20.24;42.46
74336;BME280;62755;-33.398;-70.572;2023-10-08T01:05:37;93477.28;;;20.32;42.41
74336;BME280;62755;-33.398;-70.572;2023-10-08T01:08:14;93484.25;;;20.33;42.47
74336;BME280;62755;-33.398;-70.572;2023-10-08T01:11:21;93483.88;;;20.40;42.35
74336;BME280;62755;-33.398;-70.572;2023-10-08T01:13:54;93481.22;;;20.31;42.52
74336;BME280;62755;-33.398;-70.572;2023-10-08T01:16:25;93454.28;;;20.00;42.77
74336;BME280;62755;-33.398;-70.572;2023-10-08T01:18:56;93496.81;;;19.98;43.10
74336;BME280;62755;-33.398;-70.572;2023-10-08T01:21:29;93500.16;;;19.93;43.13
74336;BME280;62755;-33.398;-70.572;2023-10-08T01:24:03;93502.25;;;19.98;42.93
74336;BME280;62755;-33.398;-70.572;2023-10-08T01:26:34;93501.00;;;20.08;42.63
74336;BME280;62755;-33.398;-70.572;2023-10-08T01:29:09;93506.75;;;20.01;42.49
74336;BME280;62755;-33.398;-70.572;2023-10-08T01:31:46;93513.63;;;19.87;43.20
74336;BME280;62755;-33.398;-70.572;2023-10-08T01:34:16;93510.16;;;19.87;43.31
74336;BME280;62755;-33.398;-70.572;2023-10-08T01:36:45;93513.84;;;19.66;44.04
74336;BME280;62755;-33.398;-70.572;2023-10-08T01:39:17;93490.34;;;19.36;44.25
74336;BME280;62755;-33.398;-70.572;2023-10-08T01:41:46;93521.16;;;19.51;43.98
74336;BME280;62755;-33.398;-70.572;2023-10-08T01:44:18;93523.53;;;19.58;43.81
74336;BME280;62755;-33.398;-70.572;2023-10-08T01:46:47;93518.44;;;19.51;43.63
74336;BME280;62755;-33.398;-70.572;2023-10-08T01:49:17;93519.03;;;19.55;43.56
74336;BME280;62755;-33.398;-70.572;2023-10-08T01:51:49;93493.50;;;19.34;43.70
74336;BME280;62755;-33.398;-70.572;2023-10-08T01:54:22;93522.06;;;19.39;43.13
74336;BME280;62755;-33.398;-70.572;2023-10-08T01:56:53;93519.81;;;19.19;43.49
74336;BME280;62755;-33.398;-70.572;2023-10-08T01:59:22;93524.50;;;19.37;43.32
74336;BME280;62755;-33.398;-70.572;2023-10-08T02:01:52;93523.88;;;19.51;43.38
74336;BME280;62755;-33.398;-70.572;2023-10-08T02:04:24;93534.44;;;19.49;43.38
74336;BME280;62755;-33.398;-70.572;2023-10-08T02:06:53;93532.94;;;19.57;43.26
74336;BME280;62755;-33.398;-70.572;2023-10-08T02:09:25;93536.25;;;19.61;43.27
74336;BME280;62755;-33.398;-70.572;2023-10-08T02:11:55;93537.59;;;19.56;43.50
74336;BME280;62755;-33.398;-70.572;2023-10-08T02:14:25;93533.81;;;19.54;44.20
74336;BME280;62755;-33.398;-70.572;2023-10-08T02:16:58;93525.22;;;19.46;44.09
74336;BME280;62755;-33.398;-70.572;2023-10-08T02:19:33;93540.22;;;19.33;44.46
74336;BME280;62755;-33.398;-70.572;2023-10-08T02:22:04;93536.28;;;19.34;44.02
74336;BME280;62755;-33.398;-70.572;2023-10-08T02:24:38;93520.56;;;19.19;44.01
74336;BME280;62755;-33.398;-70.572;2023-10-08T02:27:10;93540.50;;;19.35;43.91
74336;BME280;62755;-33.398;-70.572;2023-10-08T02:29:42;93539.00;;;19.43;43.48
74336;BME280;62755;-33.398;-70.572;2023-10-08T02:32:11;93533.56;;;19.15;43.91
74336;BME280;62755;-33.398;-70.572;2023-10-08T02:34:40;93534.63;;;19.18;44.19
74336;BME280;62755;-33.398;-70.572;2023-10-08T02:37:10;93531.44;;;19.01;44.25
74336;BME280;62755;-33.398;-70.572;2023-10-08T02:39:41;93532.66;;;19.00;44.52
74336;BME280;62755;-33.398;-70.572;2023-10-08T02:42:11;93533.28;;;19.04;44.60
74336;BME280;62755;-33.398;-70.572;2023-10-08T02:44:41;93534.31;;;18.98;44.54
74336;BME280;62755;-33.398;-70.572;2023-10-08T02:47:11;93534.47;;;18.85;45.06
74336;BME280;62755;-33.398;-70.572;2023-10-08T02:49:43;93537.47;;;18.78;45.46
74336;BME280;62755;-33.398;-70.572;2023-10-08T02:52:15;93530.25;;;18.84;45.55
74336;BME280;62755;-33.398;-70.572;2023-10-08T02:54:46;93534.47;;;18.85;45.56
74336;BME280;62755;-33.398;-70.572;2023-10-08T02:57:19;93533.84;;;18.63;45.92
74336;BME280;62755;-33.398;-70.572;2023-10-08T02:59:49;93528.53;;;18.51;46.29
74336;BME280;62755;-33.398;-70.572;2023-10-08T03:02:21;93531.72;;;18.58;45.95
74336;BME280;62755;-33.398;-70.572;2023-10-08T03:04:52;93533.25;;;18.59;46.01
74336;BME280;62755;-33.398;-70.572;2023-10-08T03:07:21;93535.31;;;18.46;46.50
74336;BME280;62755;-33.398;-70.572;2023-10-08T03:10:00;93531.19;;;18.32;47.02
74336;BME280;62755;-33.398;-70.572;2023-10-08T03:12:33;93534.91;;;18.17;47.17
74336;BME280;62755;-33.398;-70.572;2023-10-08T03:15:03;93530.13;;;18.30;46.82
74336;BME280;62755;-33.398;-70.572;2023-10-08T03:17:54;93526.94;;;18.22;47.13
74336;BME280;62755;-33.398;-70.572;2023-10-08T03:20:24;93521.97;;;18.30;46.91
74336;BME280;62755;-33.398;-70.572;2023-10-08T03:23:05;93520.47;;;18.29;46.94
74336;BME280;62755;-33.398;-70.572;2023-10-08T03:25:41;93522.59;;;18.34;46.69
74336;BME280;62755;-33.398;-70.572;2023-10-08T03:28:13;93509.28;;;18.18;47.17
74336;BME280;62755;-33.398;-70.572;2023-10-08T03:30:43;93516.81;;;18.14;46.97
74336;BME280;62755;-33.398;-70.572;2023-10-08T03:33:19;93524.13;;;17.95;47.35
74336;BME280;62755;-33.398;-70.572;2023-10-08T03:35:51;93518.22;;;17.88;47.42
74336;BME280;62755;-33.398;-70.572;2023-10-08T03:38:22;93516.13;;;17.92;46.90
74336;BME280;62755;-33.398;-70.572;2023-10-08T03:41:12;93517.63;;;17.93;47.00
74336;BME280;62755;-33.398;-70.572;2023-10-08T03:43:45;93512.91;;;17.75;47.64
74336;BME280;62755;-33.398;-70.572;2023-10-08T03:46:29;93521.78;;;17.76;47.84
74336;BME280;62755;-33.398;-70.572;2023-10-08T03:48:59;93529.91;;;17.67;47.16
74336;BME280;62755;-33.398;-70.572;2023-10-08T03:51:32;93530.53;;;17.71;47.03
74336;BME280;62755;-33.398;-70.572;2023-10-08T03:54:06;93531.16;;;17.75;46.74
74336;BME280;62755;-33.398;-70.572;2023-10-08T03:56:47;93533.81;;;17.66;47.17
74336;BME280;62755;-33.398;-70.572;2023-10-08T03:59:18;93512.84;;;17.57;47.26
74336;BME280;62755;-33.398;-70.572;2023-10-08T04:01:58;93534.78;;;17.81;47.15
74336;BME280;62755;-33.398;-70.572;2023-10-08T04:04:37;93530.59;;;17.89;46.81
74336;BME280;62755;-33.398;-70.572;2023-10-08T04:07:20;93536.63;;;17.93;46.75
74336;BME280;62755;-33.398;-70.572;2023-10-08T04:09:55;93539.78;;;17.91;47.21
74336;BME280;62755;-33.398;-70.572;2023-10-08T04:12:55;93537.59;;;18.08;46.86
74336;BME280;62755;-33.398;-70.572;2023-10-08T04:15:25;93537.59;;;18.08;46.63
74336;BME280;62755;-33.398;-70.572;2023-10-08T04:17:54;93531.56;;;18.04;46.97
74336;BME280;62755;-33.398;-70.572;2023-10-08T04:20:24;93539.47;;;18.20;46.35
74336;BME280;62755;-33.398;-70.572;2023-10-08T04:23:06;93540.75;;;18.06;46.56
74336;BME280;62755;-33.398;-70.572;2023-10-08T04:25:40;93554.50;;;18.12;46.83
74336;BME280;62755;-33.398;-70.572;2023-10-08T04:28:12;93555.78;;;18.29;46.35
74336;BME280;62755;-33.398;-70.572;2023-10-08T04:30:44;93544.84;;;18.11;46.41
74336;BME280;62755;-33.398;-70.572;2023-10-08T04:33:17;93546.69;;;18.14;45.99
74336;BME280;62755;-33.398;-70.572;2023-10-08T04:35:47;93546.94;;;18.07;45.85
74336;BME280;62755;-33.398;-70.572;2023-10-08T04:38:20;93551.34;;;17.83;45.92
74336;BME280;62755;-33.398;-70.572;2023-10-08T04:40:50;93548.91;;;17.76;46.07
74336;BME280;62755;-33.398;-70.572;2023-10-08T04:43:22;93551.09;;;17.90;46.35
74336;BME280;62755;-33.398;-70.572;2023-10-08T04:45:54;93548.88;;;18.06;46.17
74336;BME280;62755;-33.398;-70.572;2023-10-08T04:48:24;93542.41;;;18.04;45.98
74336;BME280;62755;-33.398;-70.572;2023-10-08T04:50:56;93547.56;;;18.11;45.94
74336;BME280;62755;-33.398;-70.572;2023-10-08T04:53:30;93540.56;;;17.92;46.56
74336;BME280;62755;-33.398;-70.572;2023-10-08T04:56:04;93537.31;;;18.06;46.36
74336;BME280;62755;-33.398;-70.572;2023-10-08T04:58:42;93535.94;;;18.10;46.57
74336;BME280;62755;-33.398;-70.572;2023-10-08T05:01:13;93531.25;;;18.02;46.30
74336;BME280;62755;-33.398;-70.572;2023-10-08T05:03:56;93540.69;;;17.88;46.72
74336;BME280;62755;-33.398;-70.572;2023-10-08T05:06:50;93535.69;;;17.87;47.35
74336;BME280;62755;-33.398;-70.572;2023-10-08T05:09:28;93540.56;;;17.92;47.52
74336;BME280;62755;-33.398;-70.572;2023-10-08T05:12:19;93532.03;;;17.72;48.39
74336;BME280;62755;-33.398;-70.572;2023-10-08T05:15:04;93532.13;;;17.37;49.21
74336;BME280;62755;-33.398;-70.572;2023-10-08T05:18:00;93533.34;;;17.45;49.50
74336;BME280;62755;-33.398;-70.572;2023-10-08T05:20:41;93537.59;;;17.68;48.88
74336;BME280;62755;-33.398;-70.572;2023-10-08T05:23:26;93531.06;;;17.57;48.80
74336;BME280;62755;-33.398;-70.572;2023-10-08T05:26:20;93539.09;;;17.47;49.51
74336;BME280;62755;-33.398;-70.572;2023-10-08T05:28:58;93523.84;;;17.41;49.69
74336;BME280;62755;-33.398;-70.572;2023-10-08T05:31:50;93524.00;;;17.37;49.70
74336;BME280;62755;-33.398;-70.572;2023-10-08T05:34:42;93525.13;;;17.27;50.50
74336;BME280;62755;-33.398;-70.572;2023-10-08T05:37:38;93530.78;;;17.42;49.57
74336;BME280;62755;-33.398;-70.572;2023-10-08T05:40:14;93524.88;;;17.34;49.85
74336;BME280;62755;-33.398;-70.572;2023-10-08T05:43:08;93532.69;;;17.32;49.96
74336;BME280;62755;-33.398;-70.572;2023-10-08T05:46:02;93535.91;;;17.18;50.15
74336;BME280;62755;-33.398;-70.572;2023-10-08T05:48:46;93527.00;;;17.18;50.29
74336;BME280;62755;-33.398;-70.572;2023-10-08T05:51:28;93524.28;;;17.39;49.99
74336;BME280;62755;-33.398;-70.572;2023-10-08T05:54:13;93537.59;;;17.46;49.66
74336;BME280;62755;-33.398;-70.572;2023-10-08T05:57:04;93525.38;;;17.20;50.18
74336;BME280;62755;-33.398;-70.572;2023-10-08T05:59:34;93530.66;;;17.24;50.75
74336;BME280;62755;-33.398;-70.572;2023-10-08T06:02:19;93537.47;;;17.28;50.39
74336;BME280;62755;-33.398;-70.572;2023-10-08T06:04:58;93512.13;;;17.22;49.89
74336;BME280;62755;-33.398;-70.572;2023-10-08T06:07:48;93527.88;;;17.36;49.42
74336;BME280;62755;-33.398;-70.572;2023-10-08T06:10:22;93533.00;;;17.34;49.87
74336;BME280;62755;-33.398;-70.572;2023-10-08T06:13:10;93531.81;;;17.35;49.22
74336;BME280;62755;-33.398;-70.572;2023-10-08T06:15:44;93534.41;;;17.17;49.73
74336;BME280;62755;-33.398;-70.572;2023-10-08T06:18:16;93525.00;;;17.09;49.79
74336;BME280;62755;-33.398;-70.572;2023-10-08T06:20:47;93530.66;;;17.02;49.45
74336;BME280;62755;-33.398;-70.572;2023-10-08T06:23:21;93537.97;;;16.93;49.59
74336;BME280;62755;-33.398;-70.572;2023-10-08T06:25:52;93534.84;;;16.94;49.79
74336;BME280;62755;-33.398;-70.572;2023-10-08T06:28:24;93535.31;;;16.80;49.91
74336;BME280;62755;-33.398;-70.572;2023-10-08T06:30:55;93529.00;;;16.83;49.80
74336;BME280;62755;-33.398;-70.572;2023-10-08T06:33:25;93514.13;;;16.66;49.50
74336;BME280;62755;-33.398;-70.572;2023-10-08T06:35:59;93508.94;;;16.59;49.60
74336;BME280;62755;-33.398;-70.572;2023-10-08T06:38:33;93533.78;;;16.79;49.54
74336;BME280;62755;-33.398;-70.572;2023-10-08T06:41:04;93533.19;;;16.97;48.86
74336;BME280;62755;-33.398;-70.572;2023-10-08T06:43:36;93510.38;;;16.85;48.91
74336;BME280;62755;-33.398;-70.572;2023-10-08T06:46:06;93532.06;;;17.07;48.92
74336;BME280;62755;-33.398;-70.572;2023-10-08T06:48:39;93533.06;;;17.00;48.82
74336;BME280;62755;-33.398;-70.572;2023-10-08T06:51:12;93536.53;;;17.01;48.51
74336;BME280;62755;-33.398;-70.572;2023-10-08T06:53:46;93529.09;;;16.92;48.88
74336;BME280;62755;-33.398;-70.572;2023-10-08T06:56:16;93513.66;;;16.80;48.67
74336;BME280;62755;-33.398;-70.572;2023-10-08T06:58:47;93517.31;;;17.08;48.61
74336;BME280;62755;-33.398;-70.572;2023-10-08T07:01:19;93508.16;;;16.71;48.81
74336;BME280;62755;-33.398;-70.572;2023-10-08T07:03:51;93477.78;;;16.42;49.41
74336;BME280;62755;-33.398;-70.572;2023-10-08T07:06:26;93504.97;;;16.38;49.82
74336;BME280;62755;-33.398;-70.572;2023-10-08T07:08:58;93503.34;;;16.53;49.50
74336;BME280;62755;-33.398;-70.572;2023-10-08T07:11:32;93489.25;;;16.46;49.08
74336;BME280;62755;-33.398;-70.572;2023-10-08T07:14:04;93484.72;;;16.43;48.83
74336;BME280;62755;-33.398;-70.572;2023-10-08T07:16:37;93486.47;;;16.37;48.41
74336;BME280;62755;-33.398;-70.572;2023-10-08T07:19:08;93491.25;;;16.33;48.57
74336;BME280;62755;-33.398;-70.572;2023-10-08T07:21:47;93485.66;;;16.15;48.25
74336;BME280;62755;-33.398;-70.572;2023-10-08T07:24:21;93483.91;;;16.21;47.87
74336;BME280;62755;-33.398;-70.572;2023-10-08T07:26:50;93486.94;;;16.23;47.91
74336;BME280;62755;-33.398;-70.572;2023-10-08T07:29:22;93487.81;;;16.20;47.39
74336;BME280;62755;-33.398;-70.572;2023-10-08T07:31:52;93484.56;;;16.25;47.15
74336;BME280;62755;-33.398;-70.572;2023-10-08T07:34:21;93482.84;;;16.18;47.27
74336;BME280;62755;-33.398;-70.572;2023-10-08T07:37:02;93483.28;;;16.17;47.52
74336;BME280;62755;-33.398;-70.572;2023-10-08T07:39:32;93482.06;;;16.30;47.15
74336;BME280;62755;-33.398;-70.572;2023-10-08T07:42:13;93487.41;;;16.09;47.41
74336;BME280;62755;-33.398;-70.572;2023-10-08T07:44:43;93496.09;;;15.78;47.65
74336;BME280;62755;-33.398;-70.572;2023-10-08T07:47:14;93492.22;;;15.54;48.96
74336;BME280;62755;-33.398;-70.572;2023-10-08T07:49:43;93495.09;;;15.72;49.04
74336;BME280;62755;-33.398;-70.572;2023-10-08T07:52:14;93497.16;;;15.94;48.56
74336;BME280;62755;-33.398;-70.572;2023-10-08T07:54:44;93501.81;;;15.93;48.42
74336;BME280;62755;-33.398;-70.572;2023-10-08T07:57:14;93507.09;;;15.97;49.83
74336;BME280;62755;-33.398;-70.572;2023-10-08T07:59:46;93515.00;;;16.04;50.83
74336;BME280;62755;-33.398;-70.572;2023-10-08T08:02:16;93521.94;;;16.05;49.96
74336;BME280;62755;-33.398;-70.572;2023-10-08T08:04:51;93507.84;;;16.10;48.99
74336;BME280;62755;-33.398;-70.572;2023-10-08T08:07:22;93510.75;;;16.28;48.50
74336;BME280;62755;-33.398;-70.572;2023-10-08T08:09:52;93519.94;;;16.18;48.52
74336;BME280;62755;-33.398;-70.572;2023-10-08T08:12:27;93502.66;;;16.03;48.60
74336;BME280;62755;-33.398;-70.572;2023-10-08T08:14:59;93516.28;;;16.12;48.07
74336;BME280;62755;-33.398;-70.572;2023-10-08T08:17:30;93506.16;;;15.78;49.01
74336;BME280;62755;-33.398;-70.572;2023-10-08T08:20:00;93513.50;;;15.52;49.96
74336;BME280;62755;-33.398;-70.572;2023-10-08T08:22:46;93503.69;;;15.58;50.02
74336;BME280;62755;-33.398;-70.572;2023-10-08T08:25:21;93513.91;;;15.51;50.17
74336;BME280;62755;-33.398;-70.572;2023-10-08T08:28:01;93507.69;;;15.25;50.37
74336;BME280;62755;-33.398;-70.572;2023-10-08T08:30:33;93505.41;;;15.52;49.71
74336;BME280;62755;-33.398;-70.572;2023-10-08T08:33:03;93504.75;;;15.48;50.29
74336;BME280;62755;-33.398;-70.572;2023-10-08T08:35:37;93508.50;;;15.51;50.13
74336;BME280;62755;-33.398;-70.572;2023-10-08T08:38:08;93509.19;;;15.67;50.13
74336;BME280;62755;-33.398;-70.572;2023-10-08T08:40:39;93511.88;;;15.93;49.41
74336;BME280;62755;-33.398;-70.572;2023-10-08T08:43:09;93506.91;;;15.53;50.48
74336;BME280;62755;-33.398;-70.572;2023-10-08T08:45:39;93497.41;;;15.74;49.77
74336;BME280;62755;-33.398;-70.572;2023-10-08T08:48:10;93502.38;;;15.75;49.88
74336;BME280;62755;-33.398;-70.572;2023-10-08T08:50:41;93503.69;;;15.58;50.71
74336;BME280;62755;-33.398;-70.572;2023-10-08T08:53:13;93499.53;;;15.66;50.55
74336;BME280;62755;-33.398;-70.572;2023-10-08T08:55:42;93496.75;;;15.70;50.83
74336;BME280;62755;-33.398;-70.572;2023-10-08T08:58:13;93480.09;;;15.71;50.12
74336;BME280;62755;-33.398;-70.572;2023-10-08T09:03:18;93511.47;;;15.81;50.11
74336;BME280;62755;-33.398;-70.572;2023-10-08T09:05:48;93511.22;;;15.89;50.22
74336;BME280;62755;-33.398;-70.572;2023-10-08T09:08:20;93507.34;;;15.90;50.26
74336;BME280;62755;-33.398;-70.572;2023-10-08T09:10:51;93518.56;;;16.01;49.80
74336;BME280;62755;-33.398;-70.572;2023-10-08T09:13:21;93514.69;;;16.02;50.22
74336;BME280;62755;-33.398;-70.572;2023-10-08T09:15:52;93515.94;;;16.10;49.80
74336;BME280;62755;-33.398;-70.572;2023-10-08T09:18:25;93508.41;;;16.05;50.06
74336;BME280;62755;-33.398;-70.572;2023-10-08T09:20:55;93506.78;;;16.07;49.50
74336;BME280;62755;-33.398;-70.572;2023-10-08T09:23:27;93513.47;;;16.15;49.03
74336;BME280;62755;-33.398;-70.572;2023-10-08T09:25:58;93517.72;;;15.78;49.07
74336;BME280;62755;-33.398;-70.572;2023-10-08T09:28:31;93521.81;;;15.70;48.85
74336;BME280;62755;-33.398;-70.572;2023-10-08T09:31:03;93515.56;;;15.48;49.41
74336;BME280;62755;-33.398;-70.572;2023-10-08T09:33:33;93512.97;;;15.45;49.20
74336;BME280;62755;-33.398;-70.572;2023-10-08T09:36:02;93517.72;;;15.53;49.07
74336;BME280;62755;-33.398;-70.572;2023-10-08T09:38:36;93516.63;;;15.63;49.50
74336;BME280;62755;-33.398;-70.572;2023-10-08T09:41:05;93509.50;;;15.69;49.06
74336;BME280;62755;-33.398;-70.572;2023-10-08T09:43:35;93510.47;;;15.63;49.42
74336;BME280;62755;-33.398;-70.572;2023-10-08T09:46:10;93510.81;;;15.52;48.75
74336;BME280;62755;-33.398;-70.572;2023-10-08T09:48:44;93510.81;;;15.52;48.72
74336;BME280;62755;-33.398;-70.572;2023-10-08T09:51:18;93508.28;;;15.45;49.09
74336;BME280;62755;-33.398;-70.572;2023-10-08T09:54:01;93509.75;;;15.34;49.11
74336;BME280;62755;-33.398;-70.572;2023-10-08T09:56:37;93506.09;;;15.28;49.36
74336;BME280;62755;-33.398;-70.572;2023-10-08T09:59:07;93501.94;;;15.11;49.87
74336;BME280;62755;-33.398;-70.572;2023-10-08T10:01:38;93506.19;;;15.24;49.77
74336;BME280;62755;-33.398;-70.572;2023-10-08T10:04:10;93502.75;;;15.36;49.33
74336;BME280;62755;-33.398;-70.572;2023-10-08T10:06:42;93507.06;;;15.21;49.72
74336;BME280;62755;-33.398;-70.572;2023-10-08T10:09:20;93506.19;;;15.24;49.59
74336;BME280;62755;-33.398;-70.572;2023-10-08T10:11:53;93511.59;;;15.24;49.59
74336;BME280;62755;-33.398;-70.572;2023-10-08T10:14:24;93504.69;;;15.23;49.17
74336;BME280;62755;-33.398;-70.572;2023-10-08T10:17:14;93500.81;;;15.37;48.46
74336;BME280;62755;-33.398;-70.572;2023-10-08T10:19:47;93498.84;;;15.37;48.71
74336;BME280;62755;-33.398;-70.572;2023-10-08T10:22:28;93501.22;;;15.35;48.77
74336;BME280;62755;-33.398;-70.572;2023-10-08T10:25:00;93509.16;;;15.42;48.47
74336;BME280;62755;-33.398;-70.572;2023-10-08T10:27:31;93481.66;;;15.19;48.95
74336;BME280;62755;-33.398;-70.572;2023-10-08T10:30:04;93505.47;;;15.49;48.69
74336;BME280;62755;-33.398;-70.572;2023-10-08T10:32:35;93504.31;;;15.62;48.66
74336;BME280;62755;-33.398;-70.572;2023-10-08T10:35:05;93507.28;;;15.39;48.89
74336;BME280;62755;-33.398;-70.572;2023-10-08T10:37:38;93515.94;;;15.34;48.64
74336;BME280;62755;-33.398;-70.572;2023-10-08T10:40:23;93519.75;;;15.08;49.06
74336;BME280;62755;-33.398;-70.572;2023-10-08T10:42:57;93521.47;;;15.02;48.70
74336;BME280;62755;-33.398;-70.572;2023-10-08T10:45:29;93524.97;;;15.15;48.42
74336;BME280;62755;-33.398;-70.572;2023-10-08T10:48:07;93525.22;;;14.92;49.15
74336;BME280;62755;-33.398;-70.572;2023-10-08T10:50:49;93522.25;;;15.03;48.45
74336;BME280;62755;-33.398;-70.572;2023-10-08T10:53:33;93536.41;;;15.07;48.47
74336;BME280;62755;-33.398;-70.572;2023-10-08T10:56:17;93534.81;;;15.09;48.84
74336;BME280;62755;-33.398;-70.572;2023-10-08T10:58:47;93537.84;;;15.24;48.40
74336;BME280;62755;-33.398;-70.572;2023-10-08T11:01:23;93539.28;;;15.28;48.57
74336;BME280;62755;-33.398;-70.572;2023-10-08T11:03:57;93536.69;;;15.25;49.00
74336;BME280;62755;-33.398;-70.572;2023-10-08T11:06:27;93548.97;;;15.13;49.20
74336;BME280;62755;-33.398;-70.572;2023-10-08T11:09:00;93545.59;;;15.09;49.61
74336;BME280;62755;-33.398;-70.572;2023-10-08T11:11:34;93553.03;;;15.05;49.71
74336;BME280;62755;-33.398;-70.572;2023-10-08T11:14:08;93561.81;;;15.09;49.57
74336;BME280;62755;-33.398;-70.572;2023-10-08T11:16:43;93563.41;;;15.07;49.56
74336;BME280;62755;-33.398;-70.572;2023-10-08T11:19:14;93566.22;;;15.03;49.99
74336;BME280;62755;-33.398;-70.572;2023-10-08T11:21:51;93564.84;;;15.11;49.48
74336;BME280;62755;-33.398;-70.572;2023-10-08T11:24:31;93574.88;;;15.11;49.42
74336;BME280;62755;-33.398;-70.572;2023-10-08T11:27:03;93577.69;;;15.07;49.70
74336;BME280;62755;-33.398;-70.572;2023-10-08T11:29:46;93584.78;;;15.01;49.47
74336;BME280;62755;-33.398;-70.572;2023-10-08T11:32:24;93582.03;;;15.17;48.98
74336;BME280;62755;-33.398;-70.572;2023-10-08T11:34:57;93580.47;;;15.32;48.85
74336;BME280;62755;-33.398;-70.572;2023-10-08T11:37:28;93579.69;;;15.32;49.30
74336;BME280;62755;-33.398;-70.572;2023-10-08T11:40:00;93571.97;;;15.18;49.79
74336;BME280;62755;-33.398;-70.572;2023-10-08T11:42:38;93572.63;;;15.22;50.00
74336;BME280;62755;-33.398;-70.572;2023-10-08T11:45:11;93568.00;;;15.22;49.64
74336;BME280;62755;-33.398;-70.572;2023-10-08T11:47:53;93583.97;;;15.17;49.86
74336;BME280;62755;-33.398;-70.572;2023-10-08T11:50:31;93580.72;;;15.09;50.17
74336;BME280;62755;-33.398;-70.572;2023-10-08T11:53:02;93595.88;;;15.19;49.71
74336;BME280;62755;-33.398;-70.572;2023-10-08T11:55:33;93590.94;;;15.30;49.05
74336;BME280;62755;-33.398;-70.572;2023-10-08T11:58:06;93588.47;;;15.36;48.67
74336;BME280;62755;-33.398;-70.572;2023-10-08T12:00:39;93600.50;;;15.47;48.76
74336;BME280;62755;-33.398;-70.572;2023-10-08T12:03:12;93604.00;;;15.32;49.44
74336;BME280;62755;-33.398;-70.572;2023-10-08T12:05:45;93607.97;;;15.15;49.76
74336;BME280;62755;-33.398;-70.572;2023-10-08T12:08:17;93616.88;;;15.28;50.08
74336;BME280;62755;-33.398;-70.572;2023-10-08T12:10:47;93599.75;;;15.47;49.18
74336;BME280;62755;-33.398;-70.572;2023-10-08T12:13:23;93590.38;;;15.51;48.67
74336;BME280;62755;-33.398;-70.572;2023-10-08T12:15:53;93606.69;;;15.48;49.01
74336;BME280;62755;-33.398;-70.572;2023-10-08T12:18:32;93603.03;;;15.67;48.97
74336;BME280;62755;-33.398;-70.572;2023-10-08T12:21:06;93605.22;;;15.72;48.39
74336;BME280;62755;-33.398;-70.572;2023-10-08T12:23:38;93610.31;;;15.82;48.52
74336;BME280;62755;-33.398;-70.572;2023-10-08T12:26:07;93622.34;;;15.81;48.72
74336;BME280;62755;-33.398;-70.572;2023-10-08T12:28:40;93624.63;;;15.96;48.86
74336;BME280;62755;-33.398;-70.572;2023-10-08T12:31:09;93623.75;;;15.99;48.61
74336;BME280;62755;-33.398;-70.572;2023-10-08T12:33:39;93625.28;;;16.12;48.40
74336;BME280;62755;-33.398;-70.572;2023-10-08T12:36:11;93618.88;;;16.31;47.83
74336;BME280;62755;-33.398;-70.572;2023-10-08T12:38:41;93624.41;;;16.28;48.17
74336;BME280;62755;-33.398;-70.572;2023-10-08T12:41:11;93620.72;;;16.22;48.36
74336;BME280;62755;-33.398;-70.572;2023-10-08T12:43:43;93621.19;;;16.08;48.76
74336;BME280;62755;-33.398;-70.572;2023-10-08T12:46:13;93624.41;;;16.03;49.48
74336;BME280;62755;-33.398;-70.572;2023-10-08T12:48:51;93618.03;;;16.09;49.21
74336;BME280;62755;-33.398;-70.572;2023-10-08T12:51:21;93610.66;;;16.22;48.87
74336;BME280;62755;-33.398;-70.572;2023-10-08T12:53:52;93618.44;;;16.20;48.98
74336;BME280;62755;-33.398;-70.572;2023-10-08T12:56:30;93622.25;;;16.23;48.58
74336;BME280;62755;-33.398;-70.572;2023-10-08T12:59:13;93618.56;;;16.42;48.02
74336;BME280;62755;-33.398;-70.572;2023-10-08T13:01:49;93609.34;;;16.39;48.05
74336;BME280;62755;-33.398;-70.572;2023-10-08T13:04:21;93611.97;;;16.43;48.81
74336;BME280;62755;-33.398;-70.572;2023-10-08T13:06:55;93611.19;;;16.55;48.14
74336;BME280;62755;-33.398;-70.572;2023-10-08T13:09:24;93607.53;;;16.49;48.00